Weather reports worldwide

Advertisment
Great Dun Fell, United Kingdom (3227): temperature & dewpoint: 15.05.2019 04:00:00 - 21.05.2019 04:00:00 (BST)Great Dun Fell, United Kingdom (3227): wind speed & gusts: 15.05.2019 04:00:00 - 21.05.2019 04:00:00 (BST)Great Dun Fell, United Kingdom (3227): wind direction: 15.05.2019 04:00:00 - 21.05.2019 04:00:00 (BST)
Date & Time tt [°C] td [°C] ff [km/h] ff [kn] fx [km/h] fx [kn] dd
21.05.2019 04:00:00 3,9 3,9 22 12 - - W
21.05.2019 03:00:00 3,9 3,9 24 13 - - WNW
21.05.2019 02:00:00 4,4 4,4 21 11 - - WNW
21.05.2019 01:00:00 5,3 5,3 22 12 - - NW
21.05.2019 00:00:00 5,0 5,0 24 13 - - NW
20.05.2019 23:00:00 5,7 5,6 21 11 - - WNW
20.05.2019 22:00:00 5,7 5,7 22 12 - - NW
20.05.2019 21:00:00 6,2 4,0 22 12 - - WNW
20.05.2019 20:00:00 6,6 2,6 26 14 - - NW
20.05.2019 19:00:00 7,3 2,1 18 10 - - WNW
20.05.2019 18:00:00 6,8 5,6 24 13 - - W
20.05.2019 17:00:00 7,8 4,1 21 11 - - W
20.05.2019 16:00:00 7,6 2,1 24 13 - - W
20.05.2019 15:00:00 7,4 3,3 24 13 - - W
20.05.2019 14:00:00 7,5 2,4 26 14 - - W
20.05.2019 13:00:00 7,5 1,7 22 12 - - W
20.05.2019 12:00:00 6,0 1,2 26 14 - - W
20.05.2019 11:00:00 5,4 0,7 28 15 - - W
20.05.2019 10:00:00 5,1 -0,7 26 14 - - W
20.05.2019 09:00:00 4,6 0,3 15 8 - - WNW
20.05.2019 08:00:00 4,6 1,2 21 11 - - WNW
20.05.2019 07:00:00 4,8 4,8 24 13 - - WNW
20.05.2019 06:00:00 5,2 5,1 21 11 - - W
20.05.2019 05:00:00 5,3 5,3 15 8 - - W
20.05.2019 04:00:00 5,4 5,4 18 10 - - W
20.05.2019 03:00:00 5,4 5,4 15 8 - - W
20.05.2019 02:00:00 5,5 5,5 16 9 - - W
20.05.2019 01:00:00 5,5 5,5 15 8 - - W
20.05.2019 00:00:00 5,4 5,4 21 11 - - WNW
19.05.2019 23:00:00 5,5 5,4 24 13 - - WNW
19.05.2019 22:00:00 5,5 5,5 26 14 - - WNW
19.05.2019 21:00:00 5,6 5,5 18 10 - - WNW
19.05.2019 20:00:00 5,8 5,7 22 12 - - W
19.05.2019 19:00:00 6,1 5,3 22 12 - - W
19.05.2019 18:00:00 6,4 5,1 13 7 - - NW
19.05.2019 17:00:00 6,4 4,8 15 8 - - WNW
19.05.2019 16:00:00 6,2 4,9 13 7 - - WNW
19.05.2019 15:00:00 6,1 5,1 15 8 - - W
19.05.2019 14:00:00 5,9 3,8 11 6 - - W
19.05.2019 13:00:00 5,7 4,4 16 9 - - WNW
19.05.2019 12:00:00 5,6 4,6 13 7 - - W
19.05.2019 11:00:00 5,4 4,2 16 9 - - WSW
19.05.2019 10:00:00 5,1 4,4 21 11 - - W
19.05.2019 09:00:00 4,8 3,8 18 10 - - WSW
19.05.2019 08:00:00 4,4 4,2 18 10 - - WSW
19.05.2019 07:00:00 4,0 4,0 26 14 - - WSW
19.05.2019 06:00:00 4,1 4,1 31 17 - - SW
19.05.2019 05:00:00 4,1 4,1 31 17 - - SW
19.05.2019 04:00:00 4,3 4,3 31 17 - - SW
19.05.2019 03:00:00 4,2 4,2 24 13 - - SW
19.05.2019 02:00:00 4,6 4,6 13 7 - - SSW
19.05.2019 01:00:00 4,6 4,6 18 10 - - SSW
19.05.2019 00:00:00 4,8 4,8 24 13 - - SSW
18.05.2019 23:00:00 5,6 5,6 21 11 - - SW
18.05.2019 22:00:00 6,0 6,0 21 11 - - SW
18.05.2019 21:00:00 6,2 6,1 13 7 - - SW
18.05.2019 20:00:00 6,5 6,0 2 1 - - SW
18.05.2019 19:00:00 6,6 5,8 5 3 - - W
18.05.2019 18:00:00 7,1 4,7 11 6 - - WSW
18.05.2019 17:00:00 7,1 3,6 4 2 - - WNW
18.05.2019 16:00:00 6,5 5,9 8 4 - - WNW
18.05.2019 15:00:00 6,2 5,7 13 7 - - W
18.05.2019 14:00:00 6,0 4,7 15 8 - - W
18.05.2019 13:00:00 5,3 3,8 13 7 - - W
18.05.2019 12:00:00 5,3 3,9 9 5 - - WSW
18.05.2019 11:00:00 5,2 3,8 15 8 - - W
18.05.2019 10:00:00 4,9 4,8 8 4 - - WSW
18.05.2019 09:00:00 4,9 4,9 2 1 - - NNE
18.05.2019 08:00:00 4,5 4,5 9 5 - - NE
18.05.2019 07:00:00 4,2 4,2 22 12 - - NE
18.05.2019 06:00:00 4,1 4,1 24 13 - - ENE
18.05.2019 05:00:00 4,1 4,1 29 16 - - ENE
18.05.2019 04:00:00 4,3 4,2 28 15 - - NE
18.05.2019 03:00:00 4,2 4,2 41 22 46 25 ENE
18.05.2019 02:00:00 4,1 4,1 39 21 - - NE
18.05.2019 01:00:00 4,1 4,1 29 16 46 25 NE
18.05.2019 00:00:00 4,1 4,1 37 20 68 37 ENE
17.05.2019 23:00:00 4,0 4,0 61 33 67 36 ENE
17.05.2019 22:00:00 3,5 3,5 57 31 65 35 ENE
17.05.2019 21:00:00 3,8 3,8 54 29 70 38 ENE
17.05.2019 20:00:00 5,2 3,3 61 33 70 38 ENE
17.05.2019 19:00:00 7,0 1,8 50 27 61 33 ENE
17.05.2019 18:00:00 7,3 3,1 48 26 57 31 ENE
17.05.2019 17:00:00 7,5 2,6 42 23 65 35 ENE
17.05.2019 16:00:00 8,1 2,1 57 31 68 37 ENE
17.05.2019 15:00:00 9,0 1,0 57 31 70 38 ENE
17.05.2019 14:00:00 9,1 0,2 57 31 70 38 ENE
17.05.2019 13:00:00 8,6 1,4 54 29 72 39 ENE
17.05.2019 12:00:00 8,3 1,5 59 32 72 39 ENE
17.05.2019 11:00:00 7,1 0,9 57 31 70 38 ENE
17.05.2019 10:00:00 6,7 -0,3 54 29 67 36 ENE
17.05.2019 09:00:00 5,0 1,6 52 28 65 35 ENE
17.05.2019 08:00:00 3,2 3,0 50 27 67 36 NE
17.05.2019 07:00:00 3,3 3,3 54 29 65 35 ENE
17.05.2019 06:00:00 2,6 2,6 48 26 57 31 ENE
17.05.2019 05:00:00 3,2 1,3 54 29 63 34 ENE
17.05.2019 04:00:00 3,6 0,3 63 34 68 37 ENE
17.05.2019 03:00:00 3,2 0,4 48 26 52 28 ENE
17.05.2019 02:00:00 3,7 -0,2 44 24 61 33 ENE
17.05.2019 01:00:00 2,9 1,5 44 24 59 32 E
17.05.2019 00:00:00 3,2 0,8 50 27 57 31 E
16.05.2019 23:00:00 3,3 -0,3 31 17 - - E
16.05.2019 22:00:00 3,5 0,3 31 17 - - E
16.05.2019 21:00:00 4,0 -0,2 35 19 48 26 E
16.05.2019 20:00:00 6,5 -1,1 34 18 48 26 ESE
16.05.2019 19:00:00 7,0 -2,5 41 22 54 29 ESE
16.05.2019 18:00:00 6,7 -0,2 41 22 57 31 ESE
16.05.2019 17:00:00 7,1 0,1 41 22 54 29 ESE
16.05.2019 16:00:00 7,2 -0,4 44 24 57 31 E
16.05.2019 15:00:00 7,3 -0,8 41 22 57 31 ESE
16.05.2019 14:00:00 7,7 0,1 39 21 55 30 ESE
16.05.2019 13:00:00 6,7 0,1 37 20 50 27 ESE
16.05.2019 12:00:00 6,8 -0,9 34 18 48 26 ESE
16.05.2019 11:00:00 6,0 -3,4 35 19 46 25 ESE
16.05.2019 10:00:00 5,4 -2,2 31 17 - - ESE
16.05.2019 09:00:00 5,4 -4,8 24 13 - - ESE
16.05.2019 08:00:00 4,6 -4,2 22 12 - - ESE
16.05.2019 07:00:00 3,5 -2,2 28 15 - - SE
16.05.2019 06:00:00 3,9 -3,9 29 16 - - SE
16.05.2019 05:00:00 4,6 -3,5 29 16 - - ESE
16.05.2019 04:00:00 4,9 -3,7 29 16 - - ESE
16.05.2019 03:00:00 5,8 -0,9 24 13 - - ESE
16.05.2019 02:00:00 7,2 2,0 26 14 - - ESE
16.05.2019 01:00:00 7,6 4,9 15 8 - - ESE
16.05.2019 00:00:00 8,9 6,3 9 5 - - SE
15.05.2019 23:00:00 9,0 6,2 13 7 - - ESE
15.05.2019 22:00:00 10,1 6,5 16 9 - - E
15.05.2019 21:00:00 10,4 6,9 18 10 - - ESE
15.05.2019 20:00:00 11,0 6,5 21 11 - - ESE
15.05.2019 19:00:00 11,9 6,3 21 11 - - ESE
15.05.2019 18:00:00 13,1 6,7 21 11 - - ESE
15.05.2019 17:00:00 13,6 5,1 4 2 - - SE
15.05.2019 16:00:00 13,2 6,7 11 6 59 32 W
15.05.2019 15:00:00 13,2 5,0 9 5 - - W
15.05.2019 14:00:00 13,4 2,1 5 3 - - W
15.05.2019 13:00:00 12,3 1,7 11 6 - - WSW
15.05.2019 12:00:00 11,3 1,8 9 5 - - WSW
15.05.2019 11:00:00 12,5 -0,6 8 4 - - WSW
15.05.2019 10:00:00 11,3 -3,1 11 6 - - WSW
15.05.2019 09:00:00 10,8 -8,0 5 3 - - WSW
15.05.2019 08:00:00 10,9 -7,5 8 4 - - WSW
15.05.2019 07:00:00 9,5 -4,7 5 3 - - WSW
15.05.2019 06:00:00 9,2 2,9 9 5 - - SW
15.05.2019 05:00:00 9,1 4,7 8 4 - - WSW
15.05.2019 04:00:00 9,8 5,0 8 4 - - WSW

tt = temperature
td = dewpoint
ff = wind speed
fx = gusts
dd = wind direction

Next stations